Pamlico — WX6900 — position and weather

sailwx.info

Track history (hours):
 
Tides and Currents Weather Stations Pressure Air Temp Water Temp Dewpoint Dewpoint Depression Visibility Wind Speed Wind Dir Waves Ship Positions

Pamlico

Owner: PCS Phosphate, AURORA, NC. More information available from US FCC via Universal Licensing System and Coast Guard Vessel Documentation Center.

Last reported at 2015-Mar-25 16:22 UTC. Time now 2015-Mar-27 03:39 UTC.
Position N 34°58' W 076°42'.

Length 30 m; draft 3 m.

MMSI: 367361220.

Date/timePositionNaut miles runAvg speedWind from/ knotsBaromVisibWave heightAir tempDewpointWater temp
2015-Mar-25 16:22N 34°58' W 076°42'5 5.9
2015-Mar-25 15:33N 34°54' W 076°41'6 6.2
2015-Mar-25 14:33N 34°48' W 076°41'4 4.3
2015-Mar-25 13:33N 34°43' W 076°42'3 2.8
2015-Mar-25 12:33N 34°46' W 076°41'7 6.6
2015-Mar-25 11:33N 34°53' W 076°42'6 5.6
2015-Mar-25 10:33N 34°58' W 076°41'7 6.9
2015-Mar-25 09:32N 35°03' W 076°35'7 7.1
2015-Mar-25 08:33N 35°08' W 076°30'13 0.5
2015-Mar-24 05:17N 34°59' W 076°41'5 7.0
2015-Mar-24 04:33N 34°54' W 076°40'8 8.0
2015-Mar-24 03:33N 34°46' W 076°41'3 2.9
2015-Mar-24 02:33N 34°43' W 076°42'4 4.1
2015-Mar-24 01:33N 34°47' W 076°41'7 6.6
2015-Mar-24 00:33N 34°54' W 076°41'7 0.3
2015-Mar-23 04:26N 35°01' W 076°40'6 7.1
2015-Mar-23 03:33N 34°54' W 076°40'8 7.8
2015-Mar-23 02:33N 34°47' W 076°41'3 3.4
2015-Mar-23 01:33N 34°43' W 076°42'3 2.6
2015-Mar-23 00:33N 34°46' W 076°41'6 6.5
2015-Mar-22 23:33N 34°52' W 076°42'6 5.9
2015-Mar-22 22:33N 34°58' W 076°41'  
2015-Mar-19 23:17N 34°58' W 076°41'4 5.8
2015-Mar-19 22:33N 34°54' W 076°41'6 6.0
2015-Mar-19 21:33N 34°48' W 076°41'5 5.0
2015-Mar-19 20:33N 34°43' W 076°42'0 0.4
2015-Mar-19 19:33N 34°43' W 076°42'0 0.0
2015-Mar-19 18:33N 34°43' W 076°42'0 0.0
2015-Mar-19 17:33N 34°43' W 076°42'0 0.0
2015-Mar-19 16:33N 34°43' W 076°42'1 0.6
2015-Mar-19 15:33N 34°43' W 076°41'5 5.4
2015-Mar-19 14:33N 34°48' W 076°41'5 5.0
2015-Mar-19 13:33N 34°53' W 076°41'5 4.7
2015-Mar-19 12:32N 34°58' W 076°41'7 6.6
2015-Mar-19 11:26N 35°03' W 076°35'6 0.4
2015-Mar-18 19:33N 34°59' W 076°41'6 5.9
2015-Mar-18 18:33N 34°54' W 076°41'5 5.5
2015-Mar-18 17:33N 34°48' W 076°41'  
Track history (hours):
 
Tides and Currents Weather Stations Pressure Air Temp Water Temp Dewpoint Dewpoint Depression Visibility Wind Speed Wind Dir Waves Ship Positions

Pamlico

Owner: PCS Phosphate, AURORA, NC. More information available from US FCC via Universal Licensing System and Coast Guard Vessel Documentation Center.

Last reported at 2015-Mar-25 16:22 UTC. Time now 2015-Mar-27 03:39 UTC.
Position N 34°58' W 076°42'.

Length 30 m; draft 3 m.

MMSI: 367361220.

Date/timePositionNaut miles runAvg speedWind from/ knotsBaromVisibWave heightAir tempDewpointWater temp
2015-Mar-25 16:22N 34°58' W 076°42'5 5.9
2015-Mar-25 15:33N 34°54' W 076°41'6 6.2
2015-Mar-25 14:33N 34°48' W 076°41'4 4.3
2015-Mar-25 13:33N 34°43' W 076°42'3 2.8
2015-Mar-25 12:33N 34°46' W 076°41'7 6.6
2015-Mar-25 11:33N 34°53' W 076°42'6 5.6
2015-Mar-25 10:33N 34°58' W 076°41'7 6.9
2015-Mar-25 09:32N 35°03' W 076°35'7 7.1
2015-Mar-25 08:33N 35°08' W 076°30'13 0.5
2015-Mar-24 05:17N 34°59' W 076°41'5 7.0
2015-Mar-24 04:33N 34°54' W 076°40'8 8.0
2015-Mar-24 03:33N 34°46' W 076°41'3 2.9
2015-Mar-24 02:33N 34°43' W 076°42'4 4.1
2015-Mar-24 01:33N 34°47' W 076°41'7 6.6
2015-Mar-24 00:33N 34°54' W 076°41'7 0.3
2015-Mar-23 04:26N 35°01' W 076°40'6 7.1
2015-Mar-23 03:33N 34°54' W 076°40'8 7.8
2015-Mar-23 02:33N 34°47' W 076°41'3 3.4
2015-Mar-23 01:33N 34°43' W 076°42'3 2.6
2015-Mar-23 00:33N 34°46' W 076°41'6 6.5
2015-Mar-22 23:33N 34°52' W 076°42'6 5.9
2015-Mar-22 22:33N 34°58' W 076°41'  
2015-Mar-19 23:17N 34°58' W 076°41'4 5.8
2015-Mar-19 22:33N 34°54' W 076°41'6 6.0
2015-Mar-19 21:33N 34°48' W 076°41'5 5.0
2015-Mar-19 20:33N 34°43' W 076°42'0 0.4
2015-Mar-19 19:33N 34°43' W 076°42'0 0.0
2015-Mar-19 18:33N 34°43' W 076°42'0 0.0
2015-Mar-19 17:33N 34°43' W 076°42'0 0.0
2015-Mar-19 16:33N 34°43' W 076°42'1 0.6
2015-Mar-19 15:33N 34°43' W 076°41'5 5.4
2015-Mar-19 14:33N 34°48' W 076°41'5 5.0
2015-Mar-19 13:33N 34°53' W 076°41'5 4.7
2015-Mar-19 12:32N 34°58' W 076°41'7 6.6
2015-Mar-19 11:26N 35°03' W 076°35'6 0.4
2015-Mar-18 19:33N 34°59' W 076°41'6 5.9
2015-Mar-18 18:33N 34°54' W 076°41'5 5.5
2015-Mar-18 17:33N 34°48' W 076°41'  

Dump ship's entire track history